Terminal Aerodrome Forecast
Issued by NWS Topeka, KS

Home | Current Version | Previous Version | Graphics & Text | Print | Product List | Glossary On
Versions: 1 2 3 4 5 6 7 8 9 10 11 12 13 14 15 16 17 18 19 20
000
FTUS43 KTOP 262324
TAFTOP
TAF
KTOP 262324Z 2700/2724 12006KT P6SM SKC
     FM270900 15010KT P6SM VCTS SCT050 BKN120CB
     FM271400 16010KT P6SM SCT150=

USA.gov is the U.S. government's official web portal to all federal, state and local government web resources and services.